Time;durP1;ratioP1;P1;durP2;ratioP2;P2;SDS_P1;SDS_P2;PMS_P1;PMS_P2;Temp;Humidity;BMP_temperature;BMP_pressure;BME280_temperature;BME280_humidity;BME280_pressure;Samples;Min_cycle;Max_cycle;Signal;HPM_P1;HPM_P2
2022/08/23 00:02:26;;;;;;;5.03;2.13;;;24.60;49.00;;;24.92;36.29;98517.47;4946421;28;125164;-77
2022/08/23 00:04:53;;;;;;;3.80;2.57;;;24.50;49.20;;;24.89;36.34;98514.69;4951421;28;123847;-79
2022/08/23 00:07:20;;;;;;;2.90;2.30;;;24.50;49.40;;;24.85;36.34;98508.25;4946301;28;113042;-76
2022/08/23 00:09:47;;;;;;;3.60;2.37;;;24.50;49.70;;;24.80;36.63;98517.19;4946621;28;114409;-79
2022/08/23 00:12:20;;;;;;;3.20;2.50;;;24.40;49.80;;;24.75;36.76;98506.34;4931601;28;124075;-78
2022/08/23 00:14:53;;;;;;;4.30;2.13;;;24.40;50.00;;;24.69;36.84;98503.94;4950457;28;124334;-76
2022/08/23 00:17:20;;;;;;;3.50;2.43;;;24.30;50.00;;;24.65;36.91;98508.81;4948431;28;114393;-76
2022/08/23 00:19:47;;;;;;;5.70;3.10;;;24.30;50.10;;;24.62;37.01;98509.63;4965952;28;113853;-78
2022/08/23 00:22:14;;;;;;;4.80;2.60;;;24.30;50.20;;;24.57;36.70;98510.06;4947759;28;124128;-76
2022/08/23 00:24:42;;;;;;;2.80;2.30;;;24.20;50.30;;;24.53;37.22;98509.31;4948367;28;123906;-77
2022/08/23 00:27:13;;;;;;;3.30;2.40;;;24.20;50.40;;;24.50;37.07;98510.13;4983303;28;115381;-78
2022/08/23 00:29:51;;;;;;;2.93;2.37;;;24.10;50.40;;;24.45;37.28;98508.56;5030509;28;114496;-77
2022/08/23 00:32:30;;;;;;;7.47;2.90;;;24.10;51.20;;;24.42;37.29;98500.06;5016817;27;124503;-76
2022/08/23 00:34:59;;;;;;;4.73;2.53;;;24.10;50.70;;;24.40;37.42;98513.81;5013283;28;122350;-76
2022/08/23 00:37:28;;;;;;;3.90;2.50;;;24.10;50.80;;;24.38;37.35;98511.38;5013924;28;113590;-75
2022/08/23 00:39:55;;;;;;;3.47;2.30;;;24.00;50.90;;;24.36;37.57;98510.19;5010594;28;114406;-75
2022/08/23 00:48:38;;;;;;;3.50;2.60;;;23.90;51.50;;;24.21;38.12;98496.16;5023173;28;114733;-76
2022/08/23 00:51:22;;;;;;;5.13;2.50;;;23.90;51.70;;;24.19;38.17;98507.06;5010586;28;114998;-75
2022/08/23 00:54:02;;;;;;;3.93;2.40;;;23.80;51.80;;;24.15;38.29;98503.47;5023614;28;124050;-75
2022/08/23 00:56:33;;;;;;;4.77;2.37;;;23.80;51.90;;;24.12;38.49;98509.91;4999842;28;124125;-76
2022/08/23 00:59:00;;;;;;;4.90;2.23;;;23.80;52.10;;;24.10;38.28;98508.69;5012927;28;113491;-76
2022/08/23 01:01:27;;;;;;;3.70;2.87;;;23.70;52.10;;;24.07;38.51;98513.16;5025585;28;113621;-76
2022/08/23 01:03:56;;;;;;;3.20;2.47;;;23.70;52.30;;;24.04;38.60;98508.31;5023215;28;123985;-76
2022/08/23 01:07:06;;;;;;;4.60;2.00;;;23.70;52.40;;;23.97;38.71;98497.09;5008957;28;122880;-77
2022/08/23 01:09:34;;;;;;;3.40;2.23;;;23.60;52.50;;;23.93;38.76;98502.72;5009606;28;113948;-76
2022/08/23 01:12:36;;;;;;;5.20;2.50;;;23.60;52.50;;;23.86;38.73;98513.22;5009913;28;113993;-77
2022/08/23 01:15:44;;;;;;;2.80;2.20;;;23.60;52.70;;;23.84;38.69;98508.03;5011285;28;124126;-77
2022/08/23 01:18:14;;;;;;;5.73;2.77;;;23.50;52.70;;;23.80;39.00;98502.41;5028555;27;124156;-78
2022/08/23 01:20:57;;;;;;;4.00;2.30;;;23.50;52.80;;;23.79;38.93;98502.78;5009820;28;114533;-77
2022/08/23 01:23:39;;;;;;;3.17;2.23;;;23.50;53.00;;;23.77;39.30;98505.22;5029728;27;113967;-77
2022/08/23 01:26:06;;;;;;;4.93;2.77;;;23.40;53.10;;;23.71;39.20;98507.66;5013416;28;124007;-78
2022/08/23 01:28:34;;;;;;;2.90;2.30;;;23.40;53.10;;;23.68;39.11;98514.09;5026159;27;123331;-77
2022/08/23 01:31:01;;;;;;;10.97;2.87;;;23.30;53.20;;;23.63;39.32;98517.31;5020370;28;114302;-78
2022/08/23 01:33:28;;;;;;;3.00;2.47;;;23.20;53.20;;;23.61;39.47;98519.72;5016235;28;114012;-77
2022/08/23 01:35:57;;;;;;;5.17;2.60;;;23.20;53.30;;;23.59;39.52;98513.72;5012469;28;124157;-77
2022/08/23 01:38:25;;;;;;;2.97;2.40;;;23.20;53.40;;;23.56;39.60;98506.88;5008072;28;122955;-76
2022/08/23 01:40:52;;;;;;;3.73;2.30;;;23.20;53.50;;;23.55;39.39;98515.72;5020040;28;115211;-76
2022/08/23 01:43:21;;;;;;;4.23;2.30;;;23.10;53.50;;;23.53;39.42;98515.31;5026325;28;114703;-77
2022/08/23 01:45:51;;;;;;;3.10;2.00;;;23.10;53.50;;;23.50;39.48;98513.31;5009571;28;124138;-77
2022/08/23 01:48:19;;;;;;;3.57;2.20;;;23.10;53.60;;;23.49;39.36;98517.38;5018125;27;123878;-77
2022/08/23 01:50:46;;;;;;;3.20;2.33;;;23.10;53.60;;;23.45;39.41;98510.91;5020724;28;114651;-79
2022/08/23 01:53:14;;;;;;;5.70;2.50;;;23.10;53.60;;;23.43;39.64;98518.97;5030580;28;112242;-77
2022/08/23 01:55:42;;;;;;;4.17;2.33;;;23.00;53.60;;;23.43;39.60;98518.97;5022577;28;124242;-76
2022/08/23 01:58:09;;;;;;;3.70;2.40;;;23.00;53.70;;;23.41;39.64;98527.06;5015799;28;123760;-76
2022/08/23 02:00:40;;;;;;;5.37;2.33;;;23.00;53.80;;;23.38;39.48;98532.28;5015246;28;114268;-77
2022/08/23 02:03:07;;;;;;;2.60;2.27;;;23.00;53.80;;;23.37;39.71;98527.88;5010102;28;114116;-78
2022/08/23 02:05:36;;;;;;;2.67;2.30;;;23.00;53.80;;;23.36;39.81;98526.25;5012599;28;125870;-77
2022/08/23 02:10:49;;;;;;;3.17;2.00;;;22.90;53.90;;;23.32;39.46;98530.25;5023155;28;114989;-77
2022/08/23 02:13:17;;;;;;;3.53;2.30;;;22.90;53.90;;;23.30;39.70;98527.88;5007677;28;113876;-77
2022/08/23 02:15:45;;;;;;;4.90;2.30;;;22.90;53.80;;;23.29;39.58;98536.72;5014563;28;124125;-78
2022/08/23 02:18:12;;;;;;;3.33;2.30;;;22.90;53.90;;;23.26;39.57;98531.88;5034194;27;123731;-77
2022/08/23 02:20:49;;;;;;;5.85;2.15;;;22.80;53.90;;;23.19;39.77;98532.72;5009085;28;114315;-76
2022/08/23 02:23:17;;;;;;;4.33;2.60;;;22.80;54.00;;;23.18;39.76;98530.28;5008822;28;113161;-77
2022/08/23 02:25:44;;;;;;;2.50;1.93;;;22.80;54.10;;;23.18;39.83;98539.53;5012606;28;123893;-77
2022/08/23 02:28:10;;;;;;;4.43;2.27;;;22.70;54.00;;;23.15;39.80;98526.25;5014061;28;124031;-77
2022/08/23 02:30:38;;;;;;;3.10;2.17;;;22.70;54.10;;;23.13;39.98;98535.13;5008101;28;115552;-77
2022/08/23 02:33:05;;;;;;;4.33;2.20;;;22.70;54.30;;;23.09;39.95;98530.69;5012343;28;114232;-76
2022/08/23 02:35:32;;;;;;;3.40;2.37;;;22.70;54.20;;;23.05;40.12;98527.06;5018769;28;124148;-77
2022/08/23 02:38:05;;;;;;;2.70;2.40;;;22.70;54.30;;;23.01;40.26;98537.56;5023478;28;124421;-75
2022/08/23 02:40:32;;;;;;;7.40;2.83;;;22.60;54.40;;;22.96;40.02;98533.09;5008636;28;114541;-75
2022/08/23 02:42:58;;;;;;;3.20;1.97;;;22.50;54.20;;;22.87;39.98;98529.88;5015719;28;114905;-76
2022/08/23 02:45:27;;;;;;;4.93;2.47;;;22.50;54.20;;;22.81;39.98;98529.47;5019190;27;124070;-76
2022/08/23 02:47:54;;;;;;;3.90;2.60;;;22.50;54.30;;;22.79;40.24;98526.25;5012300;28;124859;-76
2022/08/23 02:50:20;;;;;;;5.80;2.40;;;22.50;54.40;;;22.78;40.35;98533.06;5030286;28;113694;-77
2022/08/23 02:52:47;;;;;;;3.57;2.33;;;22.40;54.50;;;22.77;40.27;98539.91;5009804;28;116030;-77
2022/08/23 02:55:15;;;;;;;4.97;2.47;;;22.40;54.60;;;22.78;40.29;98538.69;5016699;28;123990;-76
2022/08/23 02:57:41;;;;;;;3.00;2.03;;;22.40;54.80;;;22.78;40.34;98535.06;5010037;28;124059;-77
2022/08/23 03:00:11;;;;;;;3.63;2.17;;;22.40;54.90;;;22.77;40.59;98533.47;5003889;28;113657;-78
2022/08/23 03:02:38;;;;;;;4.13;2.30;;;22.30;54.90;;;22.76;40.41;98537.50;5022292;28;114127;-77
2022/08/23 03:05:06;;;;;;;3.23;2.30;;;22.30;54.90;;;22.74;40.33;98540.72;5028833;28;124939;-78
2022/08/23 03:07:33;;;;;;;2.93;2.33;;;22.30;54.90;;;22.71;40.42;98541.53;5022016;27;122867;-77
2022/08/23 03:10:00;;;;;;;2.70;2.20;;;22.30;54.90;;;22.66;40.21;98534.25;5022836;28;114451;-77
2022/08/23 03:12:27;;;;;;;3.20;2.40;;;22.20;54.80;;;22.61;40.52;98547.94;5028375;28;113431;-76
2022/08/23 03:14:53;;;;;;;6.93;2.50;;;22.20;54.90;;;22.53;40.49;98546.31;5026645;28;124113;-76
2022/08/23 03:17:20;;;;;;;2.90;2.10;;;22.10;55.10;;;22.50;40.78;98547.91;5023418;27;123795;-76
2022/08/23 03:19:47;;;;;;;3.30;2.20;;;22.10;55.10;;;22.48;40.72;98545.50;5022519;27;115672;-76
2022/08/23 03:22:13;;;;;;;3.40;2.50;;;22.10;55.30;;;22.47;40.89;98543.88;5024754;28;114934;-77
2022/08/23 03:24:40;;;;;;;4.63;2.60;;;22.10;55.30;;;22.47;40.88;98543.88;5032504;28;124384;-78
2022/08/23 03:27:07;;;;;;;3.30;2.57;;;22.10;55.50;;;22.45;40.88;98549.09;5034037;28;122861;-77
2022/08/23 03:29:34;;;;;;;5.00;2.70;;;22.00;55.50;;;22.44;41.12;98546.69;5022742;28;114852;-77
2022/08/23 03:32:02;;;;;;;7.40;2.73;;;22.00;55.60;;;22.44;41.17;98539.06;5019505;28;113751;-77
2022/08/23 03:34:30;;;;;;;2.67;2.47;;;21.60;55.40;;;22.44;40.94;98544.69;5018885;28;124080;-79
2022/08/23 03:37:17;;;;;;;3.67;2.23;;;22.00;55.80;;;22.42;41.06;98547.09;5037048;27;123611;-78
2022/08/23 03:39:43;;;;;;;6.43;2.07;;;22.00;55.80;;;22.42;41.14;98549.91;5013716;28;114575;-77
2022/08/23 03:42:10;;;;;;;2.10;1.80;;;22.00;55.90;;;22.42;41.28;98554.72;5014945;28;113687;-77
2022/08/23 03:44:37;;;;;;;4.57;2.30;;;22.00;56.00;;;22.42;41.34;98547.09;5028588;27;124092;-77
2022/08/23 03:47:05;;;;;;;2.60;1.77;;;22.00;56.10;;;22.40;41.34;98551.50;5040177;27;123392;-76
2022/08/23 03:49:33;;;;;;;5.37;3.03;;;22.00;56.10;;;22.38;41.22;98557.56;5031826;28;115028;-76
2022/08/23 03:51:59;;;;;;;5.83;3.13;;;22.00;56.20;;;22.37;41.34;98564.38;5024946;28;113991;-76
2022/08/23 03:54:28;;;;;;;3.83;2.47;;;21.90;56.20;;;22.34;41.70;98562.34;5020269;28;123984;-79
2022/08/23 03:56:59;;;;;;;4.53;2.43;;;21.90;56.20;;;22.34;41.70;98564.38;5014990;28;123856;-77
2022/08/23 03:59:28;;;;;;;4.40;2.30;;;21.90;56.40;;;22.32;41.60;98569.56;5028950;27;113361;-76
2022/08/23 04:01:55;;;;;;;4.00;2.60;;;21.90;56.50;;;22.31;41.75;98574.41;5018974;28;113719;-76
2022/08/23 04:04:22;;;;;;;2.93;2.40;;;21.90;56.50;;;22.30;41.82;98577.59;5030892;28;124154;-76
2022/08/23 04:06:48;;;;;;;5.33;2.50;;;21.90;56.60;;;22.28;41.76;98573.19;5024365;28;124300;-76
2022/08/23 04:09:16;;;;;;;3.37;2.43;;;21.90;56.70;;;22.27;42.01;98574.41;5027036;28;115177;-79
2022/08/23 04:11:43;;;;;;;3.83;2.43;;;21.90;56.90;;;22.28;41.92;98580.84;5029391;28;114965;-76
2022/08/23 04:14:12;;;;;;;3.30;2.20;;;21.90;57.00;;;22.28;41.91;98580.84;5030006;28;123338;-76
2022/08/23 04:16:39;;;;;;;3.70;2.10;;;21.90;57.10;;;22.27;42.13;98580.03;5028320;28;123797;-76
2022/08/23 04:19:08;;;;;;;3.53;2.47;;;21.80;57.10;;;22.25;41.96;98576.00;5039664;27;113620;-80
2022/08/23 04:21:36;;;;;;;2.37;2.17;;;21.80;57.10;;;22.24;42.00;98585.63;5031599;28;113949;-76
2022/08/23 04:24:03;;;;;;;6.60;2.70;;;21.80;57.10;;;22.22;41.95;98588.84;5030713;28;123855;-76
2022/08/23 04:26:30;;;;;;;7.73;3.37;;;21.80;57.10;;;22.20;41.92;98582.81;5026098;28;124257;-77
2022/08/23 04:28:56;;;;;;;3.33;2.70;;;21.80;57.20;;;22.16;41.84;98583.97;5022450;28;113314;-77
2022/08/23 04:31:25;;;;;;;6.80;2.30;;;21.80;57.30;;;22.12;42.22;98585.97;5024277;28;113979;-76
2022/08/23 04:33:53;;;;;;;4.40;2.33;;;21.70;57.40;;;22.08;42.05;98587.94;5022656;28;124125;-79
2022/08/23 04:36:20;;;;;;;4.83;2.97;;;21.70;57.50;;;22.04;42.44;98600.00;5018775;28;123817;-77
2022/08/23 04:38:47;;;;;;;3.23;2.20;;;21.60;57.60;;;22.00;42.70;98598.34;5020670;28;114080;-76
2022/08/23 04:44:00;;;;;;;4.37;2.67;;;21.60;57.90;;;21.94;42.69;98609.19;5027505;28;125126;-76
2022/08/23 04:46:26;;;;;;;8.13;2.50;;;21.50;58.00;;;21.95;42.75;98613.63;5045309;27;122980;-76
2022/08/23 04:48:53;;;;;;;5.27;2.80;;;21.50;58.10;;;21.94;43.01;98605.56;5016147;28;114326;-77
2022/08/23 04:51:21;;;;;;;3.17;2.60;;;21.50;58.30;;;21.91;42.69;98612.78;5013736;28;114023;-76
2022/08/23 04:53:47;;;;;;;5.30;2.77;;;21.50;58.50;;;21.89;43.09;98617.97;5024643;28;124115;-77
2022/08/23 04:56:14;;;;;;;4.57;2.33;;;21.40;58.60;;;21.86;42.91;98615.97;5009770;28;123780;-77
2022/08/23 04:58:40;;;;;;;5.00;2.80;;;21.40;58.80;;;21.86;43.31;98623.59;5019141;28;115274;-77
2022/08/23 05:01:09;;;;;;;7.97;3.10;;;21.40;58.90;;;21.83;43.47;98625.19;5023912;27;115041;-76
2022/08/23 05:03:37;;;;;;;5.77;3.07;;;21.40;59.20;;;21.83;43.16;98620.38;5012496;28;124118;-77
2022/08/23 05:06:04;;;;;;;5.57;3.10;;;21.30;59.20;;;21.82;43.69;98626.41;5016977;28;123873;-78
2022/08/23 05:08:33;;;;;;;5.00;2.77;;;21.40;59.40;;;21.79;43.52;98621.56;5028586;28;113166;-78
2022/08/23 05:11:08;;;;;;;6.70;3.17;;;21.30;59.50;;;21.78;43.55;98628.38;5019250;28;114284;-79
2022/08/23 05:13:35;;;;;;;6.23;3.03;;;21.30;59.60;;;21.78;43.68;98625.56;5016334;28;124328;-79
2022/08/23 05:16:02;;;;;;;4.67;3.07;;;21.30;59.80;;;21.78;43.93;98620.72;5012596;28;123587;-77
2022/08/23 05:18:29;;;;;;;7.50;3.07;;;21.30;60.00;;;21.78;44.07;98620.72;5036921;27;112337;-77
2022/08/23 05:20:56;;;;;;;3.57;2.50;;;21.30;60.00;;;21.81;43.88;98633.19;5031752;28;114540;-77
2022/08/23 05:23:23;;;;;;;6.43;2.90;;;21.30;60.10;;;21.82;44.00;98621.56;5013043;27;124054;-77
2022/08/23 05:25:49;;;;;;;5.63;2.90;;;21.30;60.10;;;21.84;43.87;98626.78;5013249;28;123944;-77
2022/08/23 05:28:17;;;;;;;5.10;3.30;;;21.30;60.10;;;21.86;43.64;98632.84;5026139;28;114094;-78
2022/08/23 05:30:44;;;;;;;5.97;3.07;;;21.40;60.30;;;21.88;44.09;98626.84;5011211;28;114159;-78
2022/08/23 05:33:11;;;;;;;6.60;3.20;;;21.40;60.40;;;21.88;43.63;98633.25;5007637;28;124150;-78
2022/08/23 05:35:39;;;;;;;6.53;3.20;;;21.40;60.50;;;21.88;43.93;98635.28;5020825;28;123901;-77
2022/08/23 05:38:05;;;;;;;7.80;3.43;;;21.40;60.60;;;21.89;43.92;98631.25;5019826;28;114271;-78
2022/08/23 05:40:32;;;;;;;4.63;3.07;;;21.40;60.60;;;21.90;44.07;98638.50;5012468;28;114544;-79
2022/08/23 05:42:58;;;;;;;5.03;3.10;;;21.40;60.80;;;21.89;43.81;98636.88;5011374;27;123923;-77
2022/08/23 05:45:25;;;;;;;8.10;2.77;;;21.30;60.70;;;21.91;43.85;98631.66;5013106;28;121915;-79
2022/08/23 05:47:51;;;;;;;8.43;3.50;;;21.30;60.80;;;21.95;43.76;98633.31;5019934;28;114568;-77
2022/08/23 05:50:18;;;;;;;6.33;2.80;;;21.50;61.00;;;22.00;44.04;98638.56;5014103;28;114953;-78
2022/08/23 05:52:44;;;;;;;6.57;3.00;;;21.50;61.00;;;22.08;43.57;98638.59;5019380;28;124073;-79
2022/08/23 05:55:11;;;;;;;6.57;3.70;;;21.50;61.00;;;22.13;43.65;98643.84;5010118;28;123061;-79
2022/08/23 05:57:37;;;;;;;6.27;3.20;;;21.50;60.80;;;22.19;43.39;98647.91;5020072;28;113445;-79
2022/08/23 06:00:14;;;;;;;6.33;2.97;;;21.60;60.80;;;22.24;43.28;98653.97;5014585;28;113588;-77
2022/08/23 06:02:41;;;;;;;5.53;3.33;;;21.70;60.70;;;22.28;42.84;98651.19;5019622;28;123995;-77
2022/08/23 06:05:09;;;;;;;5.27;3.03;;;21.70;60.50;;;22.33;43.07;98659.28;5019201;28;124679;-77
2022/08/23 06:07:36;;;;;;;7.60;3.50;;;21.70;60.50;;;22.34;42.83;98663.69;5009816;28;114400;-77
2022/08/23 06:10:04;;;;;;;11.17;3.67;;;21.80;60.50;;;22.37;43.00;98662.09;5015176;28;114041;-86
2022/08/23 06:12:32;;;;;;;8.07;3.50;;;21.80;60.60;;;22.41;43.12;98657.31;5015399;28;123913;-79
2022/08/23 06:14:59;;;;;;;7.50;3.47;;;21.80;60.50;;;22.45;42.84;98666.56;5028640;28;125608;-79
2022/08/23 06:17:27;;;;;;;6.87;3.37;;;21.80;60.50;;;22.51;42.92;98667.78;5023995;27;113298;-78
2022/08/23 06:19:54;;;;;;;6.00;3.13;;;21.80;60.40;;;22.59;42.77;98658.16;5031645;27;113072;-78
2022/08/23 06:22:20;;;;;;;6.40;3.37;;;21.90;60.40;;;22.68;42.37;98660.63;5019006;28;123308;-78
2022/08/23 06:24:47;;;;;;;6.63;2.97;;;22.00;60.30;;;22.78;42.44;98664.66;5024036;28;123759;-78
2022/08/23 06:27:14;;;;;;;5.80;2.67;;;22.10;60.10;;;22.84;42.18;98663.88;5011138;28;113696;-80
2022/08/23 06:29:41;;;;;;;5.50;3.00;;;22.20;60.00;;;22.92;42.50;98665.50;5026096;28;114205;-79
2022/08/23 06:32:08;;;;;;;4.67;2.63;;;22.20;60.20;;;23.08;42.46;98672.84;5010670;28;123936;-78
2022/08/23 06:34:36;;;;;;;3.87;2.57;;;22.30;60.50;;;23.24;42.25;98669.59;5020392;28;123440;-78
2022/08/23 06:37:08;;;;;;;5.17;2.33;;;22.50;60.50;;;23.40;41.76;98670.06;5008551;28;115263;-77
2022/08/23 06:39:38;;;;;;;4.57;2.93;;;22.60;60.10;;;23.52;41.30;98664.00;5008746;28;115351;-80
2022/08/23 06:42:16;;;;;;;7.33;3.27;;;22.70;59.70;;;23.61;41.07;98663.59;5014917;27;124000;-85
2022/08/23 06:44:43;;;;;;;6.20;3.27;;;22.80;59.30;;;23.69;41.09;98664.38;5025194;27;123008;-77
2022/08/23 06:47:10;;;;;;;5.20;2.77;;;22.90;59.30;;;23.80;41.03;98670.84;5016860;28;114190;-84
2022/08/23 06:49:37;;;;;;;5.90;2.97;;;23.00;59.40;;;23.90;40.81;98663.59;5015324;28;113478;-80
2022/08/23 06:52:04;;;;;;;4.33;3.00;;;23.10;59.00;;;23.97;40.37;98666.41;5013928;27;123620;-86
2022/08/23 06:54:34;;;;;;;5.20;2.97;;;23.10;58.60;;;23.97;40.43;98667.22;5017235;27;124091;-83
2022/08/23 06:57:01;;;;;;;5.20;3.07;;;23.20;58.40;;;24.04;40.38;98669.22;5018180;28;114141;-79
2022/08/23 06:59:28;;;;;;;4.33;2.97;;;23.30;58.50;;;24.13;40.20;98669.59;5020719;28;113745;-84
2022/08/23 07:01:59;;;;;;;6.60;2.80;;;23.30;58.30;;;24.21;40.03;98670.41;5015085;28;125037;-83
2022/08/23 07:04:30;;;;;;;8.33;3.00;;;23.50;58.30;;;24.28;40.02;98675.22;5013706;28;123636;-84
2022/08/23 07:06:57;;;;;;;6.10;3.73;;;23.50;58.20;;;24.37;39.47;98670.75;5009889;28;114306;-80
2022/08/23 07:09:28;;;;;;;6.07;2.80;;;23.60;58.10;;;24.44;39.67;98672.75;5013969;28;113753;-81
2022/08/23 07:11:55;;;;;;;2.77;2.30;;;23.70;58.00;;;24.52;39.61;98676.38;5016543;28;123998;-80
2022/08/23 07:14:23;;;;;;;6.17;3.17;;;23.70;57.80;;;24.60;39.67;98681.56;5021819;28;123212;-78
2022/08/23 07:16:53;;;;;;;4.50;2.73;;;23.80;57.70;;;24.66;39.42;98671.47;5021012;28;113504;-82
2022/08/23 07:19:26;;;;;;;5.70;3.00;;;23.90;57.60;;;24.77;39.11;98679.06;5013832;28;114278;-84
2022/08/23 07:21:53;;;;;;;5.10;2.47;;;24.00;57.60;;;24.83;39.17;98686.72;5020516;28;124149;-88
2022/08/23 07:24:21;;;;;;;5.00;3.27;;;24.00;57.40;;;24.84;39.27;98682.69;5018190;28;124644;-83
2022/08/23 07:26:50;;;;;;;4.47;3.03;;;24.10;57.20;;;24.89;39.28;98687.09;5026141;28;115610;-85
2022/08/23 07:29:19;;;;;;;4.47;2.53;;;24.10;57.20;;;25.00;39.05;98687.84;5023359;28;114976;-77
2022/08/23 07:31:50;;;;;;;8.37;2.50;;;24.20;57.10;;;25.10;38.86;98686.97;5017054;28;123162;-83
2022/08/23 07:34:18;;;;;;;3.50;2.73;;;24.30;57.10;;;25.24;39.02;98688.94;5008274;28;124929;-78
2022/08/23 07:36:49;;;;;;;4.50;2.83;;;24.40;57.60;;;25.38;38.35;98682.38;5013456;28;113360;-78
2022/08/23 07:39:17;;;;;;;7.53;3.17;;;24.50;56.80;;;25.48;38.25;98684.31;5014804;28;114301;-84
2022/08/23 07:41:45;;;;;;;4.77;2.60;;;24.70;56.70;;;25.60;38.34;98696.34;5017470;28;123994;-81
2022/08/23 07:44:13;;;;;;;5.47;2.87;;;24.70;56.50;;;25.67;38.35;98696.31;5025019;27;123870;-84
2022/08/23 07:46:42;;;;;;;6.30;2.43;;;24.80;56.40;;;25.76;38.14;98690.97;5005274;28;113383;-85
2022/08/23 07:49:10;;;;;;;7.53;2.77;;;24.90;56.30;;;25.86;37.65;98692.94;5022461;28;114251;-81
2022/08/23 07:51:39;;;;;;;5.70;3.40;;;25.10;56.30;;;25.93;37.49;98687.22;5027046;27;124481;-78
2022/08/23 07:54:09;;;;;;;5.40;2.63;;;25.10;56.00;;;25.98;37.59;98683.94;5016712;28;124157;-80
2022/08/23 07:56:36;;;;;;;5.80;3.20;;;25.10;55.80;;;26.05;37.90;98697.19;5026424;28;114180;-77
2022/08/23 07:59:04;;;;;;;7.57;3.63;;;25.30;55.90;;;26.06;37.38;98689.50;5015228;28;113875;-79
2022/08/23 08:01:31;;;;;;;5.20;2.60;;;25.30;55.80;;;26.06;37.31;98689.50;5025405;28;124306;-79
2022/08/23 08:04:00;;;;;;;5.97;3.27;;;25.30;55.80;;;26.06;37.69;98690.31;5024339;28;123906;-79
2022/08/23 08:06:49;;;;;;;9.17;3.53;;;25.30;55.80;;;26.14;37.75;98699.53;5008678;27;114001;-79
2022/08/23 08:09:16;;;;;;;7.90;3.17;;;25.40;55.70;;;26.22;37.73;98692.56;5022325;27;113694;-78
2022/08/23 08:11:46;;;;;;;7.20;3.27;;;25.50;55.70;;;26.26;36.98;98693.34;5012178;27;123928;-79
2022/08/23 08:14:14;;;;;;;6.10;3.60;;;25.50;55.30;;;26.27;36.95;98694.94;5014153;28;124127;-78
2022/08/23 08:16:47;;;;;;;4.67;3.00;;;25.50;55.00;;;26.27;37.34;98699.81;5011186;28;115188;-80
2022/08/23 08:19:17;;;;;;;8.00;2.90;;;25.50;54.90;;;26.32;37.10;98699.34;5020010;28;115127;-77
2022/08/23 08:21:45;;;;;;;8.40;2.60;;;25.60;54.90;;;26.39;36.58;98699.28;5018829;28;123859;-78
2022/08/23 08:24:15;;;;;;;7.03;3.80;;;25.60;54.60;;;26.45;36.59;98689.88;5021087;28;124370;-82
2022/08/23 08:26:45;;;;;;;4.47;2.90;;;25.70;54.50;;;26.53;36.73;98690.63;5024034;28;114338;-79
2022/08/23 08:29:13;;;;;;;5.20;3.10;;;25.80;54.40;;;26.63;36.27;98700.25;5018177;28;114031;-80
2022/08/23 08:31:44;;;;;;;4.80;3.40;;;25.90;54.00;;;26.66;35.91;98699.41;5022874;27;123614;-84
2022/08/23 08:34:11;;;;;;;9.47;3.00;;;26.00;53.70;;;26.71;36.22;98700.97;5024698;28;122983;-79
2022/08/23 08:36:45;;;;;;;9.60;3.70;;;26.00;53.60;;;26.75;35.90;98705.34;5026657;28;114448;-80
2022/08/23 08:39:17;;;;;;;4.40;2.77;;;26.00;53.40;;;26.82;35.75;98693.13;5023082;28;113707;-83
2022/08/23 08:42:08;;;;;;;5.83;2.40;;;26.10;54.10;;;26.92;36.21;98702.69;5014439;28;123094;-79
2022/08/23 08:44:58;;;;;;;4.50;2.80;;;26.20;53.40;;;27.00;35.55;98701.38;5028749;27;124498;-81
2022/08/23 08:47:53;;;;;;;9.00;3.57;;;26.30;53.20;;;27.06;35.46;98708.19;5016495;28;114294;-78
2022/08/23 08:50:22;;;;;;;6.33;2.50;;;26.40;53.20;;;27.08;35.59;98708.56;5023657;27;114406;-79
2022/08/23 08:52:59;;;;;;;4.67;3.60;;;26.40;52.50;;;27.08;35.16;98708.56;5024315;28;124109;-78
2022/08/23 08:55:50;;;;;;;7.20;2.60;;;26.40;52.40;;;27.09;35.21;98708.13;5024369;28;123719;-78
2022/08/23 08:58:36;;;;;;;9.57;3.23;;;26.50;52.20;;;27.15;35.19;98708.47;5019396;28;114007;-83
2022/08/23 09:01:02;;;;;;;4.20;2.13;;;26.50;52.10;;;27.21;35.30;98706.78;5021271;27;113130;-82
2022/08/23 09:03:33;;;;;;;7.67;3.40;;;26.50;52.20;;;27.24;35.08;98711.63;5030229;28;124030;-81
2022/08/23 09:06:32;;;;;;;7.97;3.30;;;26.60;52.00;;;27.24;34.77;98717.28;5021815;28;124077;-78
2022/08/23 09:09:18;;;;;;;6.30;2.80;;;26.60;51.90;;;27.23;34.79;98714.88;5029164;28;115231;-77
2022/08/23 09:11:47;;;;;;;4.70;3.07;;;26.60;51.90;;;27.27;35.06;98712.78;5028081;28;115311;-78
2022/08/23 09:14:21;;;;;;;5.60;2.93;;;26.60;51.80;;;27.26;35.01;98711.19;5023667;28;124345;-79
2022/08/23 09:17:03;;;;;;;3.80;2.43;;;26.60;51.70;;;27.27;35.01;98705.09;5015200;28;123109;-83
2022/08/23 09:19:36;;;;;;;9.03;3.30;;;26.70;51.50;;;27.29;34.66;98705.44;5011235;27;114167;-83
2022/08/23 09:22:22;;;;;;;6.93;3.13;;;26.70;51.20;;;27.31;34.59;98705.03;5010747;28;114086;-78
2022/08/23 09:24:49;;;;;;;4.70;2.77;;;26.70;51.10;;;27.35;34.73;98702.94;5015779;28;124046;-82
2022/08/23 09:27:16;;;;;;;6.37;3.23;;;26.70;51.00;;;27.39;34.41;98694.38;5015747;28;124004;-76
2022/08/23 09:29:58;;;;;;;5.23;2.50;;;26.80;50.90;;;27.43;34.13;98697.94;5013447;28;114178;-77
2022/08/23 09:32:38;;;;;;;3.20;2.33;;;26.90;50.40;;;27.49;33.24;98699.88;5006957;28;114897;-78
2022/08/23 09:35:11;;;;;;;6.73;2.67;;;26.90;49.60;;;27.58;32.81;98702.16;5017812;28;123384;-84
2022/08/23 09:37:54;;;;;;;5.30;2.30;;;27.00;48.70;;;27.63;32.06;98709.41;5017788;28;124724;-79
2022/08/23 09:40:43;;;;;;;4.23;2.13;;;27.00;47.80;;;27.67;31.89;98702.44;5017725;28;114071;-81
2022/08/23 09:43:16;;;;;;;5.33;2.10;;;27.10;47.30;;;27.72;31.18;98699.09;5023272;27;113525;-80
2022/08/23 09:45:49;;;;;;;3.60;2.20;;;27.10;46.90;;;27.78;30.89;98702.28;5014379;28;124955;-80
2022/08/23 09:48:42;;;;;;;4.13;2.17;;;27.20;46.10;;;27.85;31.08;98698.53;5011891;28;123877;-81
2022/08/23 09:51:30;;;;;;;7.97;2.67;;;27.30;46.00;;;27.91;30.61;98703.25;5022701;28;113584;-81
2022/08/23 09:54:12;;;;;;;7.60;2.67;;;27.30;45.60;;;27.94;30.91;98701.59;5008631;28;113975;-80
2022/08/23 09:56:53;;;;;;;7.97;2.10;;;27.40;45.40;;;27.97;30.43;98695.06;5028289;28;124307;-79
2022/08/23 09:59:25;;;;;;;4.67;2.30;;;27.40;45.40;;;28.03;30.22;98699.00;5023507;27;124181;-80
2022/08/23 10:01:57;;;;;;;4.60;2.50;;;27.50;44.90;;;28.07;29.50;98694.06;5025954;28;115561;-82
2022/08/23 10:04:36;;;;;;;2.43;1.87;;;27.50;44.00;;;28.13;29.34;98694.34;5020155;28;114553;-82
2022/08/23 10:07:33;;;;;;;3.40;1.97;;;27.60;43.70;;;28.14;29.39;98688.25;5023727;28;124261;-78
2022/08/23 10:10:34;;;;;;;4.70;2.37;;;27.60;43.40;;;28.19;29.14;98690.59;5014549;28;123407;-77
2022/08/23 10:13:02;;;;;;;4.50;2.20;;;27.70;43.00;;;28.24;29.03;98689.31;5011489;28;114336;-75
2022/08/23 10:15:54;;;;;;;4.57;2.13;;;27.70;42.70;;;28.28;28.53;98690.03;5023937;28;113918;-77
2022/08/23 10:19:09;;;;;;;4.87;2.40;;;27.70;42.30;;;28.30;28.46;98684.72;5020469;27;124857;-78
2022/08/23 10:22:07;;;;;;;3.40;1.93;;;27.80;42.00;;;28.31;28.42;98682.66;5020342;28;123154;-78
2022/08/23 10:24:39;;;;;;;3.53;1.93;;;27.80;41.70;;;28.35;28.37;98692.72;5017143;28;115157;-80
2022/08/23 10:30:27;;;;;;;3.70;2.20;;;27.90;41.90;;;28.45;28.37;98681.59;5018586;27;124969;-81
2022/08/23 10:33:16;;;;;;;4.50;2.20;;;27.90;41.60;;;28.49;28.19;98676.66;5019170;28;123875;-77
2022/08/23 10:36:06;;;;;;;3.20;1.90;;;28.00;41.40;;;28.54;27.94;98676.97;5009712;28;116643;-79
2022/08/23 10:38:59;;;;;;;3.20;1.77;;;28.00;40.70;;;28.59;27.88;98673.59;5004281;28;113000;-79
2022/08/23 10:41:34;;;;;;;3.77;2.07;;;28.10;40.90;;;28.65;27.36;98685.25;5024887;28;124122;-78
2022/08/23 10:44:17;;;;;;;3.40;2.23;;;28.10;40.20;;;28.70;27.26;98666.91;5026341;28;123603;-82
2022/08/23 10:46:58;;;;;;;2.20;2.00;;;28.20;39.70;;;28.76;27.02;98676.50;5024690;28;113310;-81